sensor_id;sensor_type;location;lat;lon;timestamp;P1;durP1;ratioP1;P2;durP2;ratioP2
71116;SDS011;58775;46.992;9.518;2023-02-28T00:01:55;9.55;;;4.00;;
71116;SDS011;58775;46.992;9.518;2023-02-28T00:03:56;7.28;;;3.83;;
71116;SDS011;58775;46.992;9.518;2023-02-28T00:05:57;8.88;;;4.43;;
71116;SDS011;58775;46.992;9.518;2023-02-28T00:07:58;9.87;;;4.30;;
71116;SDS011;58775;46.992;9.518;2023-02-28T00:09:59;8.68;;;4.40;;
71116;SDS011;58775;46.992;9.518;2023-02-28T00:12:01;8.82;;;3.80;;
71116;SDS011;58775;46.992;9.518;2023-02-28T00:14:10;7.95;;;3.65;;
71116;SDS011;58775;46.992;9.518;2023-02-28T00:16:12;9.73;;;4.25;;
71116;SDS011;58775;46.992;9.518;2023-02-28T00:18:16;8.45;;;3.72;;
71116;SDS011;58775;46.992;9.518;2023-02-28T00:20:17;8.85;;;3.70;;
71116;SDS011;58775;46.992;9.518;2023-02-28T00:22:20;7.80;;;3.97;;
71116;SDS011;58775;46.992;9.518;2023-02-28T00:24:21;8.65;;;4.57;;
71116;SDS011;58775;46.992;9.518;2023-02-28T00:26:22;9.37;;;4.13;;
71116;SDS011;58775;46.992;9.518;2023-02-28T00:28:23;7.88;;;3.80;;
71116;SDS011;58775;46.992;9.518;2023-02-28T00:30:25;8.15;;;3.88;;
71116;SDS011;58775;46.992;9.518;2023-02-28T00:32:26;7.90;;;3.65;;
71116;SDS011;58775;46.992;9.518;2023-02-28T00:34:27;10.80;;;4.13;;
71116;SDS011;58775;46.992;9.518;2023-02-28T00:36:29;8.43;;;3.97;;
71116;SDS011;58775;46.992;9.518;2023-02-28T00:38:30;9.25;;;4.00;;
71116;SDS011;58775;46.992;9.518;2023-02-28T00:40:31;9.40;;;3.80;;
71116;SDS011;58775;46.992;9.518;2023-02-28T00:42:33;7.88;;;4.25;;
71116;SDS011;58775;46.992;9.518;2023-02-28T00:44:35;8.90;;;4.10;;
71116;SDS011;58775;46.992;9.518;2023-02-28T00:46:36;7.93;;;4.13;;
71116;SDS011;58775;46.992;9.518;2023-02-28T00:48:37;8.63;;;3.90;;
71116;SDS011;58775;46.992;9.518;2023-02-28T00:50:38;10.50;;;4.35;;
71116;SDS011;58775;46.992;9.518;2023-02-28T00:52:38;9.77;;;4.80;;
71116;SDS011;58775;46.992;9.518;2023-02-28T00:54:39;9.43;;;4.32;;
71116;SDS011;58775;46.992;9.518;2023-02-28T00:56:41;9.35;;;4.28;;
71116;SDS011;58775;46.992;9.518;2023-02-28T00:58:42;7.80;;;4.20;;
71116;SDS011;58775;46.992;9.518;2023-02-28T01:00:43;9.68;;;4.35;;
71116;SDS011;58775;46.992;9.518;2023-02-28T01:02:49;9.52;;;4.20;;
71116;SDS011;58775;46.992;9.518;2023-02-28T01:04:50;10.85;;;4.20;;
71116;SDS011;58775;46.992;9.518;2023-02-28T01:06:50;9.17;;;4.63;;
71116;SDS011;58775;46.992;9.518;2023-02-28T01:08:51;9.60;;;4.50;;
71116;SDS011;58775;46.992;9.518;2023-02-28T01:10:53;8.68;;;4.28;;
71116;SDS011;58775;46.992;9.518;2023-02-28T01:12:54;10.95;;;4.53;;
71116;SDS011;58775;46.992;9.518;2023-02-28T01:14:55;9.43;;;4.13;;
71116;SDS011;58775;46.992;9.518;2023-02-28T01:16:55;8.30;;;4.18;;
71116;SDS011;58775;46.992;9.518;2023-02-28T01:18:59;9.20;;;4.70;;
71116;SDS011;58775;46.992;9.518;2023-02-28T01:21:04;8.30;;;4.07;;
71116;SDS011;58775;46.992;9.518;2023-02-28T01:23:06;9.88;;;4.78;;
71116;SDS011;58775;46.992;9.518;2023-02-28T01:25:08;8.75;;;4.13;;
71116;SDS011;58775;46.992;9.518;2023-02-28T01:27:09;8.75;;;4.35;;
71116;SDS011;58775;46.992;9.518;2023-02-28T01:29:11;7.90;;;4.55;;
71116;SDS011;58775;46.992;9.518;2023-02-28T01:31:12;10.93;;;4.60;;
71116;SDS011;58775;46.992;9.518;2023-02-28T01:33:13;9.60;;;4.38;;
71116;SDS011;58775;46.992;9.518;2023-02-28T01:35:14;7.80;;;3.92;;
71116;SDS011;58775;46.992;9.518;2023-02-28T01:37:15;8.27;;;3.40;;
71116;SDS011;58775;46.992;9.518;2023-02-28T01:39:18;7.65;;;3.88;;
71116;SDS011;58775;46.992;9.518;2023-02-28T01:41:20;11.98;;;4.32;;
71116;SDS011;58775;46.992;9.518;2023-02-28T01:43:24;8.07;;;3.85;;
71116;SDS011;58775;46.992;9.518;2023-02-28T01:45:27;9.43;;;4.07;;
71116;SDS011;58775;46.992;9.518;2023-02-28T01:47:46;9.07;;;4.20;;
71116;SDS011;58775;46.992;9.518;2023-02-28T01:49:49;8.85;;;4.38;;
71116;SDS011;58775;46.992;9.518;2023-02-28T01:51:52;8.50;;;3.85;;
71116;SDS011;58775;46.992;9.518;2023-02-28T01:53:59;10.18;;;4.50;;
71116;SDS011;58775;46.992;9.518;2023-02-28T01:56:04;10.60;;;4.72;;
71116;SDS011;58775;46.992;9.518;2023-02-28T01:58:07;8.83;;;4.40;;
71116;SDS011;58775;46.992;9.518;2023-02-28T02:00:16;9.15;;;4.22;;
71116;SDS011;58775;46.992;9.518;2023-02-28T02:02:20;11.07;;;4.70;;
71116;SDS011;58775;46.992;9.518;2023-02-28T02:04:24;9.20;;;4.93;;
71116;SDS011;58775;46.992;9.518;2023-02-28T02:06:34;8.77;;;4.18;;
71116;SDS011;58775;46.992;9.518;2023-02-28T02:08:43;8.47;;;4.27;;
71116;SDS011;58775;46.992;9.518;2023-02-28T02:10:45;9.15;;;4.63;;
71116;SDS011;58775;46.992;9.518;2023-02-28T02:15:19;10.60;;;4.82;;
71116;SDS011;58775;46.992;9.518;2023-02-28T02:17:35;9.30;;;4.90;;
71116;SDS011;58775;46.992;9.518;2023-02-28T02:25:18;9.00;;;4.68;;
71116;SDS011;58775;46.992;9.518;2023-02-28T02:35:02;10.13;;;5.22;;
71116;SDS011;58775;46.992;9.518;2023-02-28T02:37:22;8.55;;;4.72;;
71116;SDS011;58775;46.992;9.518;2023-02-28T02:39:39;9.75;;;4.55;;
71116;SDS011;58775;46.992;9.518;2023-02-28T02:41:50;12.43;;;4.80;;
71116;SDS011;58775;46.992;9.518;2023-02-28T02:46:20;8.75;;;4.78;;
71116;SDS011;58775;46.992;9.518;2023-02-28T02:48:26;10.45;;;5.10;;
71116;SDS011;58775;46.992;9.518;2023-02-28T02:50:33;10.23;;;5.10;;
71116;SDS011;58775;46.992;9.518;2023-02-28T02:52:40;10.43;;;5.47;;
71116;SDS011;58775;46.992;9.518;2023-02-28T02:54:50;10.07;;;4.68;;
71116;SDS011;58775;46.992;9.518;2023-02-28T02:56:58;9.02;;;5.05;;
71116;SDS011;58775;46.992;9.518;2023-02-28T02:59:03;9.13;;;4.72;;
71116;SDS011;58775;46.992;9.518;2023-02-28T03:01:12;10.73;;;5.03;;
71116;SDS011;58775;46.992;9.518;2023-02-28T03:03:28;11.17;;;5.70;;
71116;SDS011;58775;46.992;9.518;2023-02-28T03:05:34;10.85;;;5.13;;
71116;SDS011;58775;46.992;9.518;2023-02-28T03:07:42;10.75;;;4.97;;
71116;SDS011;58775;46.992;9.518;2023-02-28T03:09:52;10.27;;;5.22;;
71116;SDS011;58775;46.992;9.518;2023-02-28T03:11:55;11.38;;;5.68;;
71116;SDS011;58775;46.992;9.518;2023-02-28T03:23:16;10.73;;;5.45;;
71116;SDS011;58775;46.992;9.518;2023-02-28T03:27:53;12.35;;;5.60;;
71116;SDS011;58775;46.992;9.518;2023-02-28T03:30:17;14.55;;;5.95;;
71116;SDS011;58775;46.992;9.518;2023-02-28T03:32:32;12.70;;;5.75;;
71116;SDS011;58775;46.992;9.518;2023-02-28T03:34:38;11.45;;;5.38;;
71116;SDS011;58775;46.992;9.518;2023-02-28T03:36:45;11.30;;;5.67;;
71116;SDS011;58775;46.992;9.518;2023-02-28T03:39:00;11.60;;;5.80;;
71116;SDS011;58775;46.992;9.518;2023-02-28T03:41:22;11.98;;;5.90;;
71116;SDS011;58775;46.992;9.518;2023-02-28T03:43:27;9.95;;;4.95;;
71116;SDS011;58775;46.992;9.518;2023-02-28T03:45:33;13.13;;;5.38;;
71116;SDS011;58775;46.992;9.518;2023-02-28T03:47:49;10.30;;;5.77;;
71116;SDS011;58775;46.992;9.518;2023-02-28T03:49:54;10.20;;;5.03;;
71116;SDS011;58775;46.992;9.518;2023-02-28T03:52:18;11.20;;;5.78;;
71116;SDS011;58775;46.992;9.518;2023-02-28T03:54:25;10.38;;;5.30;;
71116;SDS011;58775;46.992;9.518;2023-02-28T03:59:07;11.57;;;5.40;;
71116;SDS011;58775;46.992;9.518;2023-02-28T04:01:19;13.48;;;5.80;;
71116;SDS011;58775;46.992;9.518;2023-02-28T04:03:24;11.43;;;5.10;;
71116;SDS011;58775;46.992;9.518;2023-02-28T04:05:26;12.40;;;5.25;;
71116;SDS011;58775;46.992;9.518;2023-02-28T04:07:30;10.65;;;5.50;;
71116;SDS011;58775;46.992;9.518;2023-02-28T04:09:31;10.60;;;5.40;;
71116;SDS011;58775;46.992;9.518;2023-02-28T04:11:34;12.45;;;5.40;;
71116;SDS011;58775;46.992;9.518;2023-02-28T04:13:37;12.07;;;5.60;;
71116;SDS011;58775;46.992;9.518;2023-02-28T04:15:38;11.60;;;6.03;;
71116;SDS011;58775;46.992;9.518;2023-02-28T04:17:39;10.70;;;5.47;;
71116;SDS011;58775;46.992;9.518;2023-02-28T04:19:40;13.73;;;6.13;;
71116;SDS011;58775;46.992;9.518;2023-02-28T04:21:42;12.73;;;6.10;;
71116;SDS011;58775;46.992;9.518;2023-02-28T04:23:45;12.98;;;6.40;;
71116;SDS011;58775;46.992;9.518;2023-02-28T04:25:46;10.67;;;5.63;;
71116;SDS011;58775;46.992;9.518;2023-02-28T04:27:47;12.70;;;6.53;;
71116;SDS011;58775;46.992;9.518;2023-02-28T04:29:48;11.73;;;5.53;;
71116;SDS011;58775;46.992;9.518;2023-02-28T04:31:49;11.15;;;5.75;;
71116;SDS011;58775;46.992;9.518;2023-02-28T04:33:51;9.50;;;5.07;;
71116;SDS011;58775;46.992;9.518;2023-02-28T04:36:01;13.63;;;6.03;;
71116;SDS011;58775;46.992;9.518;2023-02-28T04:38:03;11.30;;;5.28;;
71116;SDS011;58775;46.992;9.518;2023-02-28T04:40:05;11.80;;;5.85;;
71116;SDS011;58775;46.992;9.518;2023-02-28T04:42:06;13.15;;;5.97;;
71116;SDS011;58775;46.992;9.518;2023-02-28T04:44:07;11.73;;;5.88;;
71116;SDS011;58775;46.992;9.518;2023-02-28T04:46:08;10.18;;;5.57;;
71116;SDS011;58775;46.992;9.518;2023-02-28T04:48:10;12.43;;;6.20;;
71116;SDS011;58775;46.992;9.518;2023-02-28T04:50:11;11.87;;;5.90;;
71116;SDS011;58775;46.992;9.518;2023-02-28T04:52:12;11.50;;;6.10;;
71116;SDS011;58775;46.992;9.518;2023-02-28T04:54:13;11.75;;;6.22;;
71116;SDS011;58775;46.992;9.518;2023-02-28T04:56:16;11.38;;;5.53;;
71116;SDS011;58775;46.992;9.518;2023-02-28T04:58:19;15.53;;;7.40;;
71116;SDS011;58775;46.992;9.518;2023-02-28T05:00:22;14.15;;;6.50;;
71116;SDS011;58775;46.992;9.518;2023-02-28T05:02:23;13.93;;;6.75;;
71116;SDS011;58775;46.992;9.518;2023-02-28T05:04:24;14.32;;;7.10;;
71116;SDS011;58775;46.992;9.518;2023-02-28T05:06:26;15.70;;;6.70;;
71116;SDS011;58775;46.992;9.518;2023-02-28T05:08:28;12.98;;;5.82;;
71116;SDS011;58775;46.992;9.518;2023-02-28T05:10:30;12.15;;;6.47;;
71116;SDS011;58775;46.992;9.518;2023-02-28T05:12:32;12.88;;;6.13;;
71116;SDS011;58775;46.992;9.518;2023-02-28T05:14:33;15.55;;;6.18;;
71116;SDS011;58775;46.992;9.518;2023-02-28T05:16:34;11.43;;;6.20;;
71116;SDS011;58775;46.992;9.518;2023-02-28T05:18:35;13.00;;;6.53;;
71116;SDS011;58775;46.992;9.518;2023-02-28T05:20:37;12.63;;;5.80;;
71116;SDS011;58775;46.992;9.518;2023-02-28T05:22:38;11.27;;;6.25;;
71116;SDS011;58775;46.992;9.518;2023-02-28T05:24:39;12.00;;;6.03;;
71116;SDS011;58775;46.992;9.518;2023-02-28T05:26:41;12.80;;;6.17;;
71116;SDS011;58775;46.992;9.518;2023-02-28T05:28:43;11.32;;;5.55;;
71116;SDS011;58775;46.992;9.518;2023-02-28T05:30:44;12.45;;;6.20;;
71116;SDS011;58775;46.992;9.518;2023-02-28T05:32:49;12.27;;;6.47;;
71116;SDS011;58775;46.992;9.518;2023-02-28T05:34:51;11.90;;;6.13;;
71116;SDS011;58775;46.992;9.518;2023-02-28T05:36:52;11.90;;;5.90;;
71116;SDS011;58775;46.992;9.518;2023-02-28T05:38:55;12.48;;;6.78;;
71116;SDS011;58775;46.992;9.518;2023-02-28T05:40:56;11.50;;;5.53;;
71116;SDS011;58775;46.992;9.518;2023-02-28T05:42:57;13.10;;;6.47;;
71116;SDS011;58775;46.992;9.518;2023-02-28T05:44:58;13.57;;;6.82;;
71116;SDS011;58775;46.992;9.518;2023-02-28T05:46:59;12.98;;;6.30;;
71116;SDS011;58775;46.992;9.518;2023-02-28T05:49:00;13.95;;;6.50;;
71116;SDS011;58775;46.992;9.518;2023-02-28T05:51:02;12.27;;;6.40;;
71116;SDS011;58775;46.992;9.518;2023-02-28T05:53:04;14.48;;;5.65;;
71116;SDS011;58775;46.992;9.518;2023-02-28T05:55:05;14.25;;;6.28;;
71116;SDS011;58775;46.992;9.518;2023-02-28T05:57:06;11.55;;;6.07;;
71116;SDS011;58775;46.992;9.518;2023-02-28T05:59:07;13.40;;;5.80;;
71116;SDS011;58775;46.992;9.518;2023-02-28T06:01:25;12.43;;;6.30;;
71116;SDS011;58775;46.992;9.518;2023-02-28T06:03:37;12.45;;;6.20;;
71116;SDS011;58775;46.992;9.518;2023-02-28T06:05:38;12.45;;;6.53;;
71116;SDS011;58775;46.992;9.518;2023-02-28T06:07:38;13.30;;;6.40;;
71116;SDS011;58775;46.992;9.518;2023-02-28T06:09:39;11.00;;;5.83;;
71116;SDS011;58775;46.992;9.518;2023-02-28T06:11:41;14.40;;;6.80;;
71116;SDS011;58775;46.992;9.518;2023-02-28T06:13:42;13.60;;;7.05;;
71116;SDS011;58775;46.992;9.518;2023-02-28T06:15:43;16.55;;;6.88;;
71116;SDS011;58775;46.992;9.518;2023-02-28T06:17:44;14.33;;;6.57;;
71116;SDS011;58775;46.992;9.518;2023-02-28T06:19:45;11.57;;;6.70;;
71116;SDS011;58775;46.992;9.518;2023-02-28T06:21:48;14.95;;;6.63;;
71116;SDS011;58775;46.992;9.518;2023-02-28T06:23:51;12.38;;;5.82;;
71116;SDS011;58775;46.992;9.518;2023-02-28T06:25:52;12.17;;;6.40;;
71116;SDS011;58775;46.992;9.518;2023-02-28T06:27:54;13.07;;;6.18;;
71116;SDS011;58775;46.992;9.518;2023-02-28T06:29:55;12.98;;;6.30;;
71116;SDS011;58775;46.992;9.518;2023-02-28T06:31:56;14.60;;;6.75;;
71116;SDS011;58775;46.992;9.518;2023-02-28T06:33:57;12.30;;;6.37;;
71116;SDS011;58775;46.992;9.518;2023-02-28T06:35:58;12.40;;;6.18;;
71116;SDS011;58775;46.992;9.518;2023-02-28T06:37:59;13.27;;;6.45;;
71116;SDS011;58775;46.992;9.518;2023-02-28T06:40:00;12.05;;;6.63;;
71116;SDS011;58775;46.992;9.518;2023-02-28T06:42:01;14.73;;;6.87;;
71116;SDS011;58775;46.992;9.518;2023-02-28T06:44:02;11.77;;;6.45;;
71116;SDS011;58775;46.992;9.518;2023-02-28T06:46:05;11.75;;;6.07;;
71116;SDS011;58775;46.992;9.518;2023-02-28T06:48:07;13.20;;;6.35;;
71116;SDS011;58775;46.992;9.518;2023-02-28T06:50:09;14.20;;;6.20;;
71116;SDS011;58775;46.992;9.518;2023-02-28T06:52:12;13.10;;;6.45;;
71116;SDS011;58775;46.992;9.518;2023-02-28T06:54:13;13.88;;;6.47;;
71116;SDS011;58775;46.992;9.518;2023-02-28T06:56:14;12.48;;;5.97;;
71116;SDS011;58775;46.992;9.518;2023-02-28T06:58:16;13.32;;;6.20;;
71116;SDS011;58775;46.992;9.518;2023-02-28T07:00:20;12.70;;;6.30;;
71116;SDS011;58775;46.992;9.518;2023-02-28T07:02:22;14.40;;;6.05;;
71116;SDS011;58775;46.992;9.518;2023-02-28T07:04:22;12.20;;;6.45;;
71116;SDS011;58775;46.992;9.518;2023-02-28T07:06:24;10.40;;;5.78;;
71116;SDS011;58775;46.992;9.518;2023-02-28T07:08:25;12.40;;;6.40;;
71116;SDS011;58775;46.992;9.518;2023-02-28T07:10:27;14.02;;;7.10;;
71116;SDS011;58775;46.992;9.518;2023-02-28T07:12:28;13.60;;;7.35;;
71116;SDS011;58775;46.992;9.518;2023-02-28T07:14:29;13.25;;;6.20;;
71116;SDS011;58775;46.992;9.518;2023-02-28T07:16:30;12.67;;;6.47;;
71116;SDS011;58775;46.992;9.518;2023-02-28T07:18:31;11.43;;;6.22;;
71116;SDS011;58775;46.992;9.518;2023-02-28T07:20:32;12.68;;;6.90;;
71116;SDS011;58775;46.992;9.518;2023-02-28T07:22:33;11.57;;;6.07;;
71116;SDS011;58775;46.992;9.518;2023-02-28T07:24:34;11.80;;;5.85;;
71116;SDS011;58775;46.992;9.518;2023-02-28T07:26:35;12.73;;;6.60;;
71116;SDS011;58775;46.992;9.518;2023-02-28T07:28:36;12.60;;;6.15;;
71116;SDS011;58775;46.992;9.518;2023-02-28T07:30:38;12.50;;;6.43;;
71116;SDS011;58775;46.992;9.518;2023-02-28T07:32:40;11.55;;;6.18;;
71116;SDS011;58775;46.992;9.518;2023-02-28T07:34:41;10.90;;;6.15;;
71116;SDS011;58775;46.992;9.518;2023-02-28T07:36:42;11.57;;;5.73;;
71116;SDS011;58775;46.992;9.518;2023-02-28T07:38:43;13.15;;;6.45;;
71116;SDS011;58775;46.992;9.518;2023-02-28T07:40:46;10.45;;;5.72;;
71116;SDS011;58775;46.992;9.518;2023-02-28T07:42:47;11.45;;;5.90;;
71116;SDS011;58775;46.992;9.518;2023-02-28T07:44:51;11.03;;;6.27;;
71116;SDS011;58775;46.992;9.518;2023-02-28T07:46:53;12.60;;;6.47;;
71116;SDS011;58775;46.992;9.518;2023-02-28T07:48:54;10.48;;;6.25;;
71116;SDS011;58775;46.992;9.518;2023-02-28T07:50:59;12.80;;;6.50;;
71116;SDS011;58775;46.992;9.518;2023-02-28T07:53:02;10.10;;;6.10;;
71116;SDS011;58775;46.992;9.518;2023-02-28T07:55:05;11.77;;;5.90;;
71116;SDS011;58775;46.992;9.518;2023-02-28T07:57:07;10.63;;;6.25;;
71116;SDS011;58775;46.992;9.518;2023-02-28T07:59:08;13.52;;;7.30;;
71116;SDS011;58775;46.992;9.518;2023-02-28T08:01:10;11.27;;;6.25;;
71116;SDS011;58775;46.992;9.518;2023-02-28T08:03:12;11.52;;;6.40;;
71116;SDS011;58775;46.992;9.518;2023-02-28T08:05:13;9.77;;;5.75;;
71116;SDS011;58775;46.992;9.518;2023-02-28T08:07:16;11.95;;;6.40;;
71116;SDS011;58775;46.992;9.518;2023-02-28T08:09:17;11.90;;;6.45;;
71116;SDS011;58775;46.992;9.518;2023-02-28T08:11:19;10.48;;;6.07;;
71116;SDS011;58775;46.992;9.518;2023-02-28T08:13:20;11.20;;;6.33;;
71116;SDS011;58775;46.992;9.518;2023-02-28T08:15:21;12.05;;;6.63;;
71116;SDS011;58775;46.992;9.518;2023-02-28T08:17:22;11.73;;;6.70;;
71116;SDS011;58775;46.992;9.518;2023-02-28T08:19:23;11.00;;;6.50;;
71116;SDS011;58775;46.992;9.518;2023-02-28T08:21:24;10.77;;;6.53;;
71116;SDS011;58775;46.992;9.518;2023-02-28T08:23:25;12.60;;;6.83;;
71116;SDS011;58775;46.992;9.518;2023-02-28T08:25:26;10.85;;;5.85;;
71116;SDS011;58775;46.992;9.518;2023-02-28T08:27:28;12.10;;;5.95;;
71116;SDS011;58775;46.992;9.518;2023-02-28T08:29:28;12.02;;;6.82;;
71116;SDS011;58775;46.992;9.518;2023-02-28T08:31:30;12.23;;;7.03;;
71116;SDS011;58775;46.992;9.518;2023-02-28T08:33:31;14.32;;;7.28;;
71116;SDS011;58775;46.992;9.518;2023-02-28T08:35:34;10.43;;;6.28;;
71116;SDS011;58775;46.992;9.518;2023-02-28T08:37:36;11.95;;;6.90;;
71116;SDS011;58775;46.992;9.518;2023-02-28T08:39:37;12.07;;;6.60;;
71116;SDS011;58775;46.992;9.518;2023-02-28T08:41:38;10.77;;;6.80;;
71116;SDS011;58775;46.992;9.518;2023-02-28T08:43:39;12.05;;;7.13;;
71116;SDS011;58775;46.992;9.518;2023-02-28T08:45:41;13.40;;;6.13;;
71116;SDS011;58775;46.992;9.518;2023-02-28T08:47:42;12.68;;;6.43;;
71116;SDS011;58775;46.992;9.518;2023-02-28T08:49:43;13.48;;;6.93;;
71116;SDS011;58775;46.992;9.518;2023-02-28T08:51:44;12.55;;;6.90;;
71116;SDS011;58775;46.992;9.518;2023-02-28T08:53:45;13.43;;;7.18;;
71116;SDS011;58775;46.992;9.518;2023-02-28T08:55:46;10.38;;;6.53;;
71116;SDS011;58775;46.992;9.518;2023-02-28T08:57:47;12.95;;;7.13;;
71116;SDS011;58775;46.992;9.518;2023-02-28T08:59:48;14.57;;;6.70;;
71116;SDS011;58775;46.992;9.518;2023-02-28T09:01:49;12.23;;;7.03;;
71116;SDS011;58775;46.992;9.518;2023-02-28T09:03:50;12.63;;;6.80;;
71116;SDS011;58775;46.992;9.518;2023-02-28T09:05:55;11.73;;;6.90;;
71116;SDS011;58775;46.992;9.518;2023-02-28T09:07:57;13.60;;;7.00;;
71116;SDS011;58775;46.992;9.518;2023-02-28T09:09:58;11.15;;;7.05;;
71116;SDS011;58775;46.992;9.518;2023-02-28T09:11:59;11.73;;;7.57;;
71116;SDS011;58775;46.992;9.518;2023-02-28T09:14:00;11.27;;;7.40;;
71116;SDS011;58775;46.992;9.518;2023-02-28T09:16:04;14.45;;;7.57;;
71116;SDS011;58775;46.992;9.518;2023-02-28T09:18:08;12.30;;;6.88;;
71116;SDS011;58775;46.992;9.518;2023-02-28T09:20:09;11.52;;;6.80;;
71116;SDS011;58775;46.992;9.518;2023-02-28T09:22:11;11.98;;;7.25;;
71116;SDS011;58775;46.992;9.518;2023-02-28T09:24:12;13.38;;;7.60;;
71116;SDS011;58775;46.992;9.518;2023-02-28T09:26:15;12.40;;;7.25;;
71116;SDS011;58775;46.992;9.518;2023-02-28T09:28:18;11.27;;;7.25;;
71116;SDS011;58775;46.992;9.518;2023-02-28T09:30:20;12.07;;;7.40;;
71116;SDS011;58775;46.992;9.518;2023-02-28T09:32:21;11.80;;;7.45;;
71116;SDS011;58775;46.992;9.518;2023-02-28T09:34:22;10.05;;;6.65;;
71116;SDS011;58775;46.992;9.518;2023-02-28T09:36:27;11.90;;;7.77;;
71116;SDS011;58775;46.992;9.518;2023-02-28T09:38:30;12.82;;;7.50;;
71116;SDS011;58775;46.992;9.518;2023-02-28T09:40:32;11.88;;;7.50;;
71116;SDS011;58775;46.992;9.518;2023-02-28T09:42:38;11.63;;;7.15;;
71116;SDS011;58775;46.992;9.518;2023-02-28T09:44:40;12.02;;;7.45;;
71116;SDS011;58775;46.992;9.518;2023-02-28T09:46:48;12.77;;;6.83;;
71116;SDS011;58775;46.992;9.518;2023-02-28T09:48:54;11.95;;;7.05;;
71116;SDS011;58775;46.992;9.518;2023-02-28T09:51:00;12.13;;;7.55;;
71116;SDS011;58775;46.992;9.518;2023-02-28T09:53:06;12.15;;;6.97;;
71116;SDS011;58775;46.992;9.518;2023-02-28T09:55:32;11.32;;;7.40;;
71116;SDS011;58775;46.992;9.518;2023-02-28T09:57:38;12.77;;;6.87;;
71116;SDS011;58775;46.992;9.518;2023-02-28T10:02:30;12.25;;;7.60;;
71116;SDS011;58775;46.992;9.518;2023-02-28T10:04:54;13.57;;;7.55;;
71116;SDS011;58775;46.992;9.518;2023-02-28T10:07:00;10.50;;;6.97;;
71116;SDS011;58775;46.992;9.518;2023-02-28T10:09:17;11.83;;;7.43;;
71116;SDS011;58775;46.992;9.518;2023-02-28T10:11:23;10.95;;;7.10;;
71116;SDS011;58775;46.992;9.518;2023-02-28T10:13:27;10.43;;;7.15;;
71116;SDS011;58775;46.992;9.518;2023-02-28T10:15:35;10.77;;;6.85;;
71116;SDS011;58775;46.992;9.518;2023-02-28T10:17:38;12.85;;;7.65;;
71116;SDS011;58775;46.992;9.518;2023-02-28T10:19:49;10.33;;;6.80;;
71116;SDS011;58775;46.992;9.518;2023-02-28T10:26:16;12.02;;;6.95;;
71116;SDS011;58775;46.992;9.518;2023-02-28T10:28:18;11.73;;;7.10;;
71116;SDS011;58775;46.992;9.518;2023-02-28T10:30:19;12.53;;;7.93;;
71116;SDS011;58775;46.992;9.518;2023-02-28T10:32:21;11.57;;;7.15;;
71116;SDS011;58775;46.992;9.518;2023-02-28T10:34:24;13.35;;;7.45;;
71116;SDS011;58775;46.992;9.518;2023-02-28T10:36:25;12.73;;;7.43;;
71116;SDS011;58775;46.992;9.518;2023-02-28T10:38:28;13.00;;;6.80;;
71116;SDS011;58775;46.992;9.518;2023-02-28T10:40:36;11.85;;;7.35;;
71116;SDS011;58775;46.992;9.518;2023-02-28T10:42:37;12.23;;;8.15;;
71116;SDS011;58775;46.992;9.518;2023-02-28T10:44:39;13.07;;;7.65;;
71116;SDS011;58775;46.992;9.518;2023-02-28T10:46:40;11.43;;;7.17;;
71116;SDS011;58775;46.992;9.518;2023-02-28T10:48:47;12.18;;;7.03;;
71116;SDS011;58775;46.992;9.518;2023-02-28T10:51:00;13.10;;;7.78;;
71116;SDS011;58775;46.992;9.518;2023-02-28T10:55:28;12.03;;;7.37;;
71116;SDS011;58775;46.992;9.518;2023-02-28T10:57:30;13.13;;;7.65;;
71116;SDS011;58775;46.992;9.518;2023-02-28T10:59:31;11.30;;;7.00;;
71116;SDS011;58775;46.992;9.518;2023-02-28T11:01:39;13.18;;;7.63;;
71116;SDS011;58775;46.992;9.518;2023-02-28T11:03:41;13.10;;;8.07;;
71116;SDS011;58775;46.992;9.518;2023-02-28T11:05:42;13.38;;;7.50;;
71116;SDS011;58775;46.992;9.518;2023-02-28T11:07:44;12.25;;;7.40;;
71116;SDS011;58775;46.992;9.518;2023-02-28T11:09:56;11.23;;;6.95;;
71116;SDS011;58775;46.992;9.518;2023-02-28T11:11:58;13.10;;;7.38;;
71116;SDS011;58775;46.992;9.518;2023-02-28T11:14:04;10.53;;;6.67;;
71116;SDS011;58775;46.992;9.518;2023-02-28T11:16:07;12.80;;;7.85;;
71116;SDS011;58775;46.992;9.518;2023-02-28T11:18:24;11.35;;;7.15;;
71116;SDS011;58775;46.992;9.518;2023-02-28T11:20:30;11.82;;;7.13;;
71116;SDS011;58775;46.992;9.518;2023-02-28T11:22:35;11.80;;;6.97;;
71116;SDS011;58775;46.992;9.518;2023-02-28T11:24:41;12.70;;;7.00;;
71116;SDS011;58775;46.992;9.518;2023-02-28T11:26:46;11.82;;;7.05;;
71116;SDS011;58775;46.992;9.518;2023-02-28T11:28:53;11.35;;;6.70;;
71116;SDS011;58775;46.992;9.518;2023-02-28T11:33:20;12.10;;;7.78;;
71116;SDS011;58775;46.992;9.518;2023-02-28T11:35:41;15.00;;;7.40;;
71116;SDS011;58775;46.992;9.518;2023-02-28T11:37:43;11.00;;;7.22;;
71116;SDS011;58775;46.992;9.518;2023-02-28T11:39:46;13.13;;;7.55;;
71116;SDS011;58775;46.992;9.518;2023-02-28T11:41:59;13.00;;;7.28;;
71116;SDS011;58775;46.992;9.518;2023-02-28T11:46:39;13.47;;;7.50;;
71116;SDS011;58775;46.992;9.518;2023-02-28T11:49:15;13.65;;;7.22;;
71116;SDS011;58775;46.992;9.518;2023-02-28T11:51:22;12.45;;;7.75;;
71116;SDS011;58775;46.992;9.518;2023-02-28T11:56:10;13.23;;;7.65;;
71116;SDS011;58775;46.992;9.518;2023-02-28T11:58:44;14.17;;;7.47;;
71116;SDS011;58775;46.992;9.518;2023-02-28T12:01:28;11.77;;;7.97;;
71116;SDS011;58775;46.992;9.518;2023-02-28T12:03:31;13.18;;;8.18;;
71116;SDS011;58775;46.992;9.518;2023-02-28T12:08:42;13.50;;;7.95;;
71116;SDS011;58775;46.992;9.518;2023-02-28T12:13:25;14.70;;;8.18;;
71116;SDS011;58775;46.992;9.518;2023-02-28T12:17:46;11.32;;;7.20;;
71116;SDS011;58775;46.992;9.518;2023-02-28T12:24:47;12.13;;;7.43;;
71116;SDS011;58775;46.992;9.518;2023-02-28T12:27:02;11.55;;;7.50;;
71116;SDS011;58775;46.992;9.518;2023-02-28T12:31:59;11.52;;;7.07;;
71116;SDS011;58775;46.992;9.518;2023-02-28T12:34:08;12.73;;;7.07;;
71116;SDS011;58775;46.992;9.518;2023-02-28T12:36:15;11.93;;;7.88;;
71116;SDS011;58775;46.992;9.518;2023-02-28T12:38:23;12.68;;;8.35;;
71116;SDS011;58775;46.992;9.518;2023-02-28T12:40:41;13.05;;;7.95;;
71116;SDS011;58775;46.992;9.518;2023-02-28T12:43:04;12.98;;;8.43;;
71116;SDS011;58775;46.992;9.518;2023-02-28T12:45:10;12.40;;;7.77;;
71116;SDS011;58775;46.992;9.518;2023-02-28T12:47:17;12.60;;;7.10;;
71116;SDS011;58775;46.992;9.518;2023-02-28T12:49:21;12.15;;;8.10;;
71116;SDS011;58775;46.992;9.518;2023-02-28T12:51:34;13.05;;;7.28;;
71116;SDS011;58775;46.992;9.518;2023-02-28T12:54:19;13.40;;;7.50;;
71116;SDS011;58775;46.992;9.518;2023-02-28T12:58:57;14.52;;;8.07;;
71116;SDS011;58775;46.992;9.518;2023-02-28T13:03:41;12.30;;;7.45;;
71116;SDS011;58775;46.992;9.518;2023-02-28T13:05:56;13.50;;;7.40;;
71116;SDS011;58775;46.992;9.518;2023-02-28T13:10:23;11.85;;;7.53;;
71116;SDS011;58775;46.992;9.518;2023-02-28T13:12:24;15.23;;;8.38;;
71116;SDS011;58775;46.992;9.518;2023-02-28T13:14:35;11.65;;;7.07;;
71116;SDS011;58775;46.992;9.518;2023-02-28T13:16:53;13.10;;;7.85;;
71116;SDS011;58775;46.992;9.518;2023-02-28T13:19:07;12.43;;;6.97;;
71116;SDS011;58775;46.992;9.518;2023-02-28T13:21:27;14.43;;;7.80;;
71116;SDS011;58775;46.992;9.518;2023-02-28T13:23:40;14.35;;;8.60;;
71116;SDS011;58775;46.992;9.518;2023-02-28T13:25:50;15.50;;;8.55;;
71116;SDS011;58775;46.992;9.518;2023-02-28T13:27:53;13.55;;;7.90;;
71116;SDS011;58775;46.992;9.518;2023-02-28T13:30:01;14.80;;;8.03;;
71116;SDS011;58775;46.992;9.518;2023-02-28T13:34:26;13.40;;;7.43;;
71116;SDS011;58775;46.992;9.518;2023-02-28T13:38:33;15.65;;;8.85;;